sensor_id;sensor_type;location;lat;lon;timestamp;P1;durP1;ratioP1;P2;durP2;ratioP2
23720;SDS011;42950;52.134;5.578;2023-10-31T00:00:39;5.43;;;2.50;;
23720;SDS011;42950;52.134;5.578;2023-10-31T00:03:05;3.38;;;1.90;;
23720;SDS011;42950;52.134;5.578;2023-10-31T00:05:30;5.15;;;1.92;;
23720;SDS011;42950;52.134;5.578;2023-10-31T00:07:56;4.82;;;1.98;;
23720;SDS011;42950;52.134;5.578;2023-10-31T00:10:21;4.70;;;1.80;;
23720;SDS011;42950;52.134;5.578;2023-10-31T00:12:47;4.95;;;1.52;;
23720;SDS011;42950;52.134;5.578;2023-10-31T00:15:13;5.13;;;1.45;;
23720;SDS011;42950;52.134;5.578;2023-10-31T00:17:38;4.40;;;1.75;;
23720;SDS011;42950;52.134;5.578;2023-10-31T00:20:04;3.58;;;1.52;;
23720;SDS011;42950;52.134;5.578;2023-10-31T00:22:30;4.95;;;1.40;;
23720;SDS011;42950;52.134;5.578;2023-10-31T00:24:56;3.15;;;1.50;;
23720;SDS011;42950;52.134;5.578;2023-10-31T00:27:21;5.53;;;1.27;;
23720;SDS011;42950;52.134;5.578;2023-10-31T00:29:47;5.75;;;1.08;;
23720;SDS011;42950;52.134;5.578;2023-10-31T00:32:12;4.18;;;1.10;;
23720;SDS011;42950;52.134;5.578;2023-10-31T00:34:38;2.30;;;1.10;;
23720;SDS011;42950;52.134;5.578;2023-10-31T00:37:04;4.70;;;1.17;;
23720;SDS011;42950;52.134;5.578;2023-10-31T00:39:29;1.38;;;0.70;;
23720;SDS011;42950;52.134;5.578;2023-10-31T00:41:55;2.33;;;0.75;;
23720;SDS011;42950;52.134;5.578;2023-10-31T00:44:20;3.10;;;0.70;;
23720;SDS011;42950;52.134;5.578;2023-10-31T00:46:46;5.25;;;1.00;;
23720;SDS011;42950;52.134;5.578;2023-10-31T00:49:13;3.47;;;1.10;;
23720;SDS011;42950;52.134;5.578;2023-10-31T00:51:38;4.03;;;1.27;;
23720;SDS011;42950;52.134;5.578;2023-10-31T00:54:04;6.57;;;2.30;;
23720;SDS011;42950;52.134;5.578;2023-10-31T00:56:30;6.72;;;2.63;;
23720;SDS011;42950;52.134;5.578;2023-10-31T00:58:56;6.18;;;3.25;;
23720;SDS011;42950;52.134;5.578;2023-10-31T01:01:21;8.50;;;4.00;;
23720;SDS011;42950;52.134;5.578;2023-10-31T01:03:47;7.55;;;4.70;;
23720;SDS011;42950;52.134;5.578;2023-10-31T01:06:12;8.48;;;4.97;;
23720;SDS011;42950;52.134;5.578;2023-10-31T01:08:38;10.02;;;5.60;;
23720;SDS011;42950;52.134;5.578;2023-10-31T01:11:04;9.88;;;6.05;;
23720;SDS011;42950;52.134;5.578;2023-10-31T01:13:29;8.88;;;6.30;;
23720;SDS011;42950;52.134;5.578;2023-10-31T01:15:55;10.63;;;6.70;;
23720;SDS011;42950;52.134;5.578;2023-10-31T01:18:21;13.73;;;8.07;;
23720;SDS011;42950;52.134;5.578;2023-10-31T01:20:46;11.05;;;8.45;;
23720;SDS011;42950;52.134;5.578;2023-10-31T01:23:12;11.43;;;8.63;;
23720;SDS011;42950;52.134;5.578;2023-10-31T01:25:38;12.07;;;9.00;;
23720;SDS011;42950;52.134;5.578;2023-10-31T01:28:03;13.27;;;9.70;;
23720;SDS011;42950;52.134;5.578;2023-10-31T01:30:30;11.82;;;9.23;;
23720;SDS011;42950;52.134;5.578;2023-10-31T01:32:56;14.05;;;9.82;;
23720;SDS011;42950;52.134;5.578;2023-10-31T01:35:22;12.50;;;9.68;;
23720;SDS011;42950;52.134;5.578;2023-10-31T01:37:50;13.35;;;9.55;;
23720;SDS011;42950;52.134;5.578;2023-10-31T01:40:15;16.02;;;9.77;;
23720;SDS011;42950;52.134;5.578;2023-10-31T01:42:41;16.52;;;9.90;;
23720;SDS011;42950;52.134;5.578;2023-10-31T01:45:08;15.07;;;10.30;;
23720;SDS011;42950;52.134;5.578;2023-10-31T01:47:33;14.00;;;9.40;;
23720;SDS011;42950;52.134;5.578;2023-10-31T01:50:00;14.52;;;9.68;;
23720;SDS011;42950;52.134;5.578;2023-10-31T01:52:26;13.77;;;9.07;;
23720;SDS011;42950;52.134;5.578;2023-10-31T01:54:52;15.05;;;8.80;;
23720;SDS011;42950;52.134;5.578;2023-10-31T01:57:19;14.00;;;8.38;;
23720;SDS011;42950;52.134;5.578;2023-10-31T01:59:46;9.63;;;7.10;;
23720;SDS011;42950;52.134;5.578;2023-10-31T02:02:12;12.70;;;6.90;;
23720;SDS011;42950;52.134;5.578;2023-10-31T02:04:38;9.02;;;6.25;;
23720;SDS011;42950;52.134;5.578;2023-10-31T02:07:04;11.85;;;6.30;;
23720;SDS011;42950;52.134;5.578;2023-10-31T02:09:29;10.23;;;6.32;;
23720;SDS011;42950;52.134;5.578;2023-10-31T02:11:55;9.80;;;6.72;;
23720;SDS011;42950;52.134;5.578;2023-10-31T02:14:24;9.40;;;5.88;;
23720;SDS011;42950;52.134;5.578;2023-10-31T02:16:50;12.93;;;7.68;;
23720;SDS011;42950;52.134;5.578;2023-10-31T02:19:20;9.93;;;7.18;;
23720;SDS011;42950;52.134;5.578;2023-10-31T02:21:47;10.25;;;6.72;;
23720;SDS011;42950;52.134;5.578;2023-10-31T02:24:12;10.93;;;8.32;;
23720;SDS011;42950;52.134;5.578;2023-10-31T02:26:38;11.02;;;7.85;;
23720;SDS011;42950;52.134;5.578;2023-10-31T02:29:03;13.50;;;9.77;;
23720;SDS011;42950;52.134;5.578;2023-10-31T02:31:29;12.35;;;10.80;;
23720;SDS011;42950;52.134;5.578;2023-10-31T02:33:55;14.50;;;11.73;;
23720;SDS011;42950;52.134;5.578;2023-10-31T02:36:21;19.20;;;12.90;;
23720;SDS011;42950;52.134;5.578;2023-10-31T02:38:46;17.30;;;12.30;;
23720;SDS011;42950;52.134;5.578;2023-10-31T02:41:12;19.38;;;13.70;;
23720;SDS011;42950;52.134;5.578;2023-10-31T02:43:39;18.67;;;13.50;;
23720;SDS011;42950;52.134;5.578;2023-10-31T02:46:05;18.85;;;14.05;;
23720;SDS011;42950;52.134;5.578;2023-10-31T02:48:31;19.10;;;13.90;;
23720;SDS011;42950;52.134;5.578;2023-10-31T02:51:03;17.13;;;14.15;;
23720;SDS011;42950;52.134;5.578;2023-10-31T02:53:29;18.33;;;13.45;;
23720;SDS011;42950;52.134;5.578;2023-10-31T02:55:55;19.48;;;14.05;;
23720;SDS011;42950;52.134;5.578;2023-10-31T02:58:21;18.60;;;13.30;;
23720;SDS011;42950;52.134;5.578;2023-10-31T03:00:46;16.70;;;12.77;;
23720;SDS011;42950;52.134;5.578;2023-10-31T03:03:12;16.48;;;12.85;;
23720;SDS011;42950;52.134;5.578;2023-10-31T03:05:38;15.88;;;11.20;;
23720;SDS011;42950;52.134;5.578;2023-10-31T03:08:04;15.27;;;11.13;;
23720;SDS011;42950;52.134;5.578;2023-10-31T03:10:29;15.13;;;11.45;;
23720;SDS011;42950;52.134;5.578;2023-10-31T03:12:55;16.38;;;11.82;;
23720;SDS011;42950;52.134;5.578;2023-10-31T03:15:20;13.70;;;10.43;;
23720;SDS011;42950;52.134;5.578;2023-10-31T03:17:46;11.18;;;9.45;;
23720;SDS011;42950;52.134;5.578;2023-10-31T03:20:11;12.38;;;9.40;;
23720;SDS011;42950;52.134;5.578;2023-10-31T03:22:37;12.68;;;9.45;;
23720;SDS011;42950;52.134;5.578;2023-10-31T03:25:03;10.02;;;8.10;;
23720;SDS011;42950;52.134;5.578;2023-10-31T03:27:29;12.45;;;7.90;;
23720;SDS011;42950;52.134;5.578;2023-10-31T03:29:54;8.85;;;7.22;;
23720;SDS011;42950;52.134;5.578;2023-10-31T03:32:20;11.23;;;7.40;;
23720;SDS011;42950;52.134;5.578;2023-10-31T03:34:45;11.02;;;6.55;;
23720;SDS011;42950;52.134;5.578;2023-10-31T03:37:11;10.00;;;6.30;;
23720;SDS011;42950;52.134;5.578;2023-10-31T03:39:36;8.85;;;6.18;;
23720;SDS011;42950;52.134;5.578;2023-10-31T03:42:02;9.88;;;6.07;;
23720;SDS011;42950;52.134;5.578;2023-10-31T03:44:27;7.75;;;5.85;;
23720;SDS011;42950;52.134;5.578;2023-10-31T03:46:53;10.15;;;5.75;;
23720;SDS011;42950;52.134;5.578;2023-10-31T03:49:18;9.55;;;6.28;;
23720;SDS011;42950;52.134;5.578;2023-10-31T03:51:44;7.07;;;5.70;;
23720;SDS011;42950;52.134;5.578;2023-10-31T03:54:10;6.65;;;5.35;;
23720;SDS011;42950;52.134;5.578;2023-10-31T03:56:42;5.97;;;4.60;;
23720;SDS011;42950;52.134;5.578;2023-10-31T03:59:08;7.60;;;4.40;;
23720;SDS011;42950;52.134;5.578;2023-10-31T04:01:34;8.10;;;3.95;;
23720;SDS011;42950;52.134;5.578;2023-10-31T04:04:00;5.75;;;3.20;;
23720;SDS011;42950;52.134;5.578;2023-10-31T04:06:25;6.32;;;3.53;;
23720;SDS011;42950;52.134;5.578;2023-10-31T04:08:52;6.05;;;3.20;;
23720;SDS011;42950;52.134;5.578;2023-10-31T04:11:17;3.67;;;2.53;;
23720;SDS011;42950;52.134;5.578;2023-10-31T04:13:43;8.02;;;1.90;;
23720;SDS011;42950;52.134;5.578;2023-10-31T04:16:08;4.18;;;1.80;;
23720;SDS011;42950;52.134;5.578;2023-10-31T04:18:35;4.53;;;1.52;;
23720;SDS011;42950;52.134;5.578;2023-10-31T04:21:01;4.75;;;1.55;;
23720;SDS011;42950;52.134;5.578;2023-10-31T04:23:26;4.82;;;1.50;;
23720;SDS011;42950;52.134;5.578;2023-10-31T04:25:52;4.40;;;1.42;;
23720;SDS011;42950;52.134;5.578;2023-10-31T04:28:18;5.10;;;1.45;;
23720;SDS011;42950;52.134;5.578;2023-10-31T04:30:43;3.20;;;1.20;;
23720;SDS011;42950;52.134;5.578;2023-10-31T04:33:09;2.72;;;1.30;;
23720;SDS011;42950;52.134;5.578;2023-10-31T04:35:34;2.58;;;1.23;;
23720;SDS011;42950;52.134;5.578;2023-10-31T04:38:00;4.25;;;1.30;;
23720;SDS011;42950;52.134;5.578;2023-10-31T04:40:26;2.45;;;1.00;;
23720;SDS011;42950;52.134;5.578;2023-10-31T04:42:51;2.03;;;1.10;;
23720;SDS011;42950;52.134;5.578;2023-10-31T04:45:17;2.25;;;0.95;;
23720;SDS011;42950;52.134;5.578;2023-10-31T04:47:43;4.85;;;1.20;;
23720;SDS011;42950;52.134;5.578;2023-10-31T04:50:08;2.25;;;1.25;;
23720;SDS011;42950;52.134;5.578;2023-10-31T04:52:35;4.90;;;1.50;;
23720;SDS011;42950;52.134;5.578;2023-10-31T04:55:00;3.55;;;1.48;;
23720;SDS011;42950;52.134;5.578;2023-10-31T04:57:26;3.80;;;1.20;;
23720;SDS011;42950;52.134;5.578;2023-10-31T04:59:52;1.48;;;1.30;;
23720;SDS011;42950;52.134;5.578;2023-10-31T05:02:20;4.43;;;1.23;;
23720;SDS011;42950;52.134;5.578;2023-10-31T05:04:47;1.35;;;0.90;;
23720;SDS011;42950;52.134;5.578;2023-10-31T05:07:16;2.88;;;1.10;;
23720;SDS011;42950;52.134;5.578;2023-10-31T05:09:45;2.75;;;1.40;;
23720;SDS011;42950;52.134;5.578;2023-10-31T05:12:10;4.65;;;1.60;;
23720;SDS011;42950;52.134;5.578;2023-10-31T05:14:36;2.95;;;1.30;;
23720;SDS011;42950;52.134;5.578;2023-10-31T05:17:02;3.08;;;1.45;;
23720;SDS011;42950;52.134;5.578;2023-10-31T05:19:28;4.45;;;1.70;;
23720;SDS011;42950;52.134;5.578;2023-10-31T05:21:53;2.30;;;1.67;;
23720;SDS011;42950;52.134;5.578;2023-10-31T05:24:20;3.42;;;1.63;;
23720;SDS011;42950;52.134;5.578;2023-10-31T05:26:45;5.10;;;2.20;;
23720;SDS011;42950;52.134;5.578;2023-10-31T05:29:11;5.30;;;2.10;;
23720;SDS011;42950;52.134;5.578;2023-10-31T05:31:38;3.67;;;1.90;;
23720;SDS011;42950;52.134;5.578;2023-10-31T05:34:03;4.30;;;2.10;;
23720;SDS011;42950;52.134;5.578;2023-10-31T05:36:29;3.08;;;1.85;;
23720;SDS011;42950;52.134;5.578;2023-10-31T05:38:55;4.13;;;2.05;;
23720;SDS011;42950;52.134;5.578;2023-10-31T05:41:21;4.55;;;2.10;;
23720;SDS011;42950;52.134;5.578;2023-10-31T05:43:48;3.08;;;1.83;;
23720;SDS011;42950;52.134;5.578;2023-10-31T05:46:14;1.83;;;1.60;;
23720;SDS011;42950;52.134;5.578;2023-10-31T05:48:46;3.38;;;1.83;;
23720;SDS011;42950;52.134;5.578;2023-10-31T05:51:12;2.67;;;1.73;;
23720;SDS011;42950;52.134;5.578;2023-10-31T05:53:39;2.58;;;2.05;;
23720;SDS011;42950;52.134;5.578;2023-10-31T05:56:06;3.38;;;2.03;;
23720;SDS011;42950;52.134;5.578;2023-10-31T05:58:32;3.67;;;2.20;;
23720;SDS011;42950;52.134;5.578;2023-10-31T06:00:58;3.95;;;2.78;;
23720;SDS011;42950;52.134;5.578;2023-10-31T06:03:26;6.60;;;3.30;;
23720;SDS011;42950;52.134;5.578;2023-10-31T06:05:51;4.35;;;3.50;;
23720;SDS011;42950;52.134;5.578;2023-10-31T06:08:17;5.55;;;4.13;;
23720;SDS011;42950;52.134;5.578;2023-10-31T06:10:43;6.75;;;4.30;;
23720;SDS011;42950;52.134;5.578;2023-10-31T06:13:08;6.95;;;5.22;;
23720;SDS011;42950;52.134;5.578;2023-10-31T06:15:34;8.30;;;5.78;;
23720;SDS011;42950;52.134;5.578;2023-10-31T06:18:00;9.23;;;5.13;;
23720;SDS011;42950;52.134;5.578;2023-10-31T06:20:26;9.13;;;5.78;;
23720;SDS011;42950;52.134;5.578;2023-10-31T06:22:51;8.52;;;6.22;;
23720;SDS011;42950;52.134;5.578;2023-10-31T06:25:17;7.05;;;5.35;;
23720;SDS011;42950;52.134;5.578;2023-10-31T06:27:43;8.18;;;5.57;;
23720;SDS011;42950;52.134;5.578;2023-10-31T06:30:09;10.13;;;6.13;;
23720;SDS011;42950;52.134;5.578;2023-10-31T06:32:35;6.22;;;5.35;;
23720;SDS011;42950;52.134;5.578;2023-10-31T06:35:01;6.38;;;5.10;;
23720;SDS011;42950;52.134;5.578;2023-10-31T06:37:27;6.82;;;5.20;;
23720;SDS011;42950;52.134;5.578;2023-10-31T06:39:53;5.78;;;4.93;;
23720;SDS011;42950;52.134;5.578;2023-10-31T06:42:18;5.22;;;4.65;;
23720;SDS011;42950;52.134;5.578;2023-10-31T06:44:44;5.57;;;4.30;;
23720;SDS011;42950;52.134;5.578;2023-10-31T06:47:09;4.85;;;4.18;;
23720;SDS011;42950;52.134;5.578;2023-10-31T06:49:36;7.25;;;3.92;;
23720;SDS011;42950;52.134;5.578;2023-10-31T06:52:02;7.38;;;4.03;;
23720;SDS011;42950;52.134;5.578;2023-10-31T06:54:28;6.38;;;3.42;;
23720;SDS011;42950;52.134;5.578;2023-10-31T06:56:53;5.57;;;3.35;;
23720;SDS011;42950;52.134;5.578;2023-10-31T06:59:19;4.55;;;3.08;;
23720;SDS011;42950;52.134;5.578;2023-10-31T07:01:44;6.43;;;3.05;;
23720;SDS011;42950;52.134;5.578;2023-10-31T07:04:11;6.30;;;3.30;;
23720;SDS011;42950;52.134;5.578;2023-10-31T07:06:37;6.53;;;2.67;;
23720;SDS011;42950;52.134;5.578;2023-10-31T07:09:02;7.85;;;2.50;;
23720;SDS011;42950;52.134;5.578;2023-10-31T07:11:30;3.42;;;2.30;;
23720;SDS011;42950;52.134;5.578;2023-10-31T07:13:59;4.53;;;2.20;;
23720;SDS011;42950;52.134;5.578;2023-10-31T07:16:28;3.13;;;2.03;;
23720;SDS011;42950;52.134;5.578;2023-10-31T07:18:54;5.35;;;2.33;;
23720;SDS011;42950;52.134;5.578;2023-10-31T07:21:19;6.80;;;2.13;;
23720;SDS011;42950;52.134;5.578;2023-10-31T07:23:45;4.88;;;2.05;;
23720;SDS011;42950;52.134;5.578;2023-10-31T07:26:11;3.75;;;1.88;;
23720;SDS011;42950;52.134;5.578;2023-10-31T07:28:36;4.28;;;2.03;;
23720;SDS011;42950;52.134;5.578;2023-10-31T07:31:02;5.45;;;1.98;;
23720;SDS011;42950;52.134;5.578;2023-10-31T07:33:28;6.18;;;2.03;;
23720;SDS011;42950;52.134;5.578;2023-10-31T07:35:54;3.70;;;1.80;;
23720;SDS011;42950;52.134;5.578;2023-10-31T07:38:19;6.22;;;2.22;;
23720;SDS011;42950;52.134;5.578;2023-10-31T07:40:45;3.92;;;2.15;;
23720;SDS011;42950;52.134;5.578;2023-10-31T07:43:10;4.57;;;2.10;;
23720;SDS011;42950;52.134;5.578;2023-10-31T07:45:36;3.72;;;2.58;;
23720;SDS011;42950;52.134;5.578;2023-10-31T07:48:01;4.25;;;2.53;;
23720;SDS011;42950;52.134;5.578;2023-10-31T07:50:27;4.15;;;2.65;;
23720;SDS011;42950;52.134;5.578;2023-10-31T07:52:53;5.22;;;2.70;;
23720;SDS011;42950;52.134;5.578;2023-10-31T07:55:19;4.28;;;3.08;;
23720;SDS011;42950;52.134;5.578;2023-10-31T07:57:44;4.18;;;3.13;;
23720;SDS011;42950;52.134;5.578;2023-10-31T08:00:10;5.57;;;3.55;;
23720;SDS011;42950;52.134;5.578;2023-10-31T08:02:37;3.42;;;3.13;;
23720;SDS011;42950;52.134;5.578;2023-10-31T08:05:02;5.35;;;4.03;;
23720;SDS011;42950;52.134;5.578;2023-10-31T08:07:28;8.63;;;4.05;;
23720;SDS011;42950;52.134;5.578;2023-10-31T08:09:55;4.63;;;4.07;;
23720;SDS011;42950;52.134;5.578;2023-10-31T08:12:21;5.47;;;3.88;;
23720;SDS011;42950;52.134;5.578;2023-10-31T08:14:47;8.38;;;4.32;;
23720;SDS011;42950;52.134;5.578;2023-10-31T08:17:13;5.78;;;3.70;;
23720;SDS011;42950;52.134;5.578;2023-10-31T08:19:39;4.78;;;3.42;;
23720;SDS011;42950;52.134;5.578;2023-10-31T08:22:04;5.65;;;3.45;;
23720;SDS011;42950;52.134;5.578;2023-10-31T08:24:30;4.50;;;3.47;;
23720;SDS011;42950;52.134;5.578;2023-10-31T08:26:55;4.93;;;3.75;;
23720;SDS011;42950;52.134;5.578;2023-10-31T08:29:21;5.70;;;3.80;;
23720;SDS011;42950;52.134;5.578;2023-10-31T08:31:46;6.38;;;3.38;;
23720;SDS011;42950;52.134;5.578;2023-10-31T08:34:12;6.28;;;3.90;;
23720;SDS011;42950;52.134;5.578;2023-10-31T08:36:37;5.95;;;3.95;;
23720;SDS011;42950;52.134;5.578;2023-10-31T08:39:03;5.32;;;3.67;;
23720;SDS011;42950;52.134;5.578;2023-10-31T08:41:29;9.10;;;4.10;;
23720;SDS011;42950;52.134;5.578;2023-10-31T08:43:55;5.65;;;3.67;;
23720;SDS011;42950;52.134;5.578;2023-10-31T08:46:20;8.25;;;4.05;;
23720;SDS011;42950;52.134;5.578;2023-10-31T08:48:46;7.85;;;3.78;;
23720;SDS011;42950;52.134;5.578;2023-10-31T08:51:12;4.80;;;3.47;;
23720;SDS011;42950;52.134;5.578;2023-10-31T08:53:38;8.35;;;4.28;;
23720;SDS011;42950;52.134;5.578;2023-10-31T08:56:03;7.25;;;3.55;;
23720;SDS011;42950;52.134;5.578;2023-10-31T08:58:29;9.18;;;4.22;;
23720;SDS011;42950;52.134;5.578;2023-10-31T09:00:55;6.00;;;4.25;;
23720;SDS011;42950;52.134;5.578;2023-10-31T09:03:20;6.88;;;4.05;;
23720;SDS011;42950;52.134;5.578;2023-10-31T09:05:46;7.85;;;4.05;;
23720;SDS011;42950;52.134;5.578;2023-10-31T09:08:11;7.03;;;3.72;;
23720;SDS011;42950;52.134;5.578;2023-10-31T09:10:37;7.20;;;4.00;;
23720;SDS011;42950;52.134;5.578;2023-10-31T09:13:07;8.40;;;4.00;;
23720;SDS011;42950;52.134;5.578;2023-10-31T09:15:33;8.30;;;3.95;;
23720;SDS011;42950;52.134;5.578;2023-10-31T09:17:58;6.50;;;3.83;;
23720;SDS011;42950;52.134;5.578;2023-10-31T09:20:24;6.78;;;4.13;;
23720;SDS011;42950;52.134;5.578;2023-10-31T09:22:50;6.78;;;4.20;;
23720;SDS011;42950;52.134;5.578;2023-10-31T09:25:15;9.68;;;4.32;;
23720;SDS011;42950;52.134;5.578;2023-10-31T09:27:41;8.32;;;4.30;;
23720;SDS011;42950;52.134;5.578;2023-10-31T09:30:07;6.03;;;3.78;;
23720;SDS011;42950;52.134;5.578;2023-10-31T09:32:32;10.27;;;4.60;;
23720;SDS011;42950;52.134;5.578;2023-10-31T09:34:58;8.85;;;4.43;;
23720;SDS011;42950;52.134;5.578;2023-10-31T09:37:24;10.70;;;3.95;;
23720;SDS011;42950;52.134;5.578;2023-10-31T09:39:49;8.88;;;4.22;;
23720;SDS011;42950;52.134;5.578;2023-10-31T09:42:15;6.70;;;4.55;;
23720;SDS011;42950;52.134;5.578;2023-10-31T09:44:40;10.30;;;4.18;;
23720;SDS011;42950;52.134;5.578;2023-10-31T09:47:06;8.00;;;4.63;;
23720;SDS011;42950;52.134;5.578;2023-10-31T09:49:32;7.70;;;4.38;;
23720;SDS011;42950;52.134;5.578;2023-10-31T09:51:58;8.02;;;4.00;;
23720;SDS011;42950;52.134;5.578;2023-10-31T09:54:25;7.07;;;4.18;;
23720;SDS011;42950;52.134;5.578;2023-10-31T09:56:52;10.45;;;4.93;;
23720;SDS011;42950;52.134;5.578;2023-10-31T09:59:17;11.13;;;4.43;;
23720;SDS011;42950;52.134;5.578;2023-10-31T10:01:43;8.52;;;4.60;;
23720;SDS011;42950;52.134;5.578;2023-10-31T10:04:09;11.30;;;4.45;;
23720;SDS011;42950;52.134;5.578;2023-10-31T10:06:35;12.68;;;5.13;;
23720;SDS011;42950;52.134;5.578;2023-10-31T10:09:07;10.98;;;4.75;;
23720;SDS011;42950;52.134;5.578;2023-10-31T10:11:33;10.32;;;4.00;;
23720;SDS011;42950;52.134;5.578;2023-10-31T10:13:59;10.77;;;4.45;;
23720;SDS011;42950;52.134;5.578;2023-10-31T10:16:31;7.75;;;4.07;;
23720;SDS011;42950;52.134;5.578;2023-10-31T10:19:13;10.90;;;4.95;;
23720;SDS011;42950;52.134;5.578;2023-10-31T10:21:55;7.05;;;4.18;;
23720;SDS011;42950;52.134;5.578;2023-10-31T10:24:22;9.77;;;4.10;;
23720;SDS011;42950;52.134;5.578;2023-10-31T10:26:49;8.90;;;4.22;;
23720;SDS011;42950;52.134;5.578;2023-10-31T10:29:15;7.90;;;3.92;;
23720;SDS011;42950;52.134;5.578;2023-10-31T10:31:41;10.20;;;4.25;;
23720;SDS011;42950;52.134;5.578;2023-10-31T10:34:12;9.15;;;3.60;;
23720;SDS011;42950;52.134;5.578;2023-10-31T10:36:39;9.23;;;3.75;;
23720;SDS011;42950;52.134;5.578;2023-10-31T10:39:05;7.78;;;3.95;;
23720;SDS011;42950;52.134;5.578;2023-10-31T10:41:33;9.05;;;3.40;;
23720;SDS011;42950;52.134;5.578;2023-10-31T10:46:33;7.43;;;2.97;;
23720;SDS011;42950;52.134;5.578;2023-10-31T10:48:59;6.80;;;2.63;;
23720;SDS011;42950;52.134;5.578;2023-10-31T10:51:43;6.50;;;2.20;;
23720;SDS011;42950;52.134;5.578;2023-10-31T10:57:14;8.35;;;2.58;;
23720;SDS011;42950;52.134;5.578;2023-10-31T10:59:49;7.60;;;2.88;;
23720;SDS011;42950;52.134;5.578;2023-10-31T11:02:17;7.68;;;2.60;;
23720;SDS011;42950;52.134;5.578;2023-10-31T11:04:43;8.77;;;2.92;;
23720;SDS011;42950;52.134;5.578;2023-10-31T11:07:09;8.88;;;2.70;;
23720;SDS011;42950;52.134;5.578;2023-10-31T11:09:35;5.28;;;2.30;;
23720;SDS011;42950;52.134;5.578;2023-10-31T11:12:03;8.05;;;2.40;;
23720;SDS011;42950;52.134;5.578;2023-10-31T11:14:30;8.63;;;3.13;;
23720;SDS011;42950;52.134;5.578;2023-10-31T11:16:58;7.75;;;2.80;;
23720;SDS011;42950;52.134;5.578;2023-10-31T11:19:28;5.78;;;2.63;;
23720;SDS011;42950;52.134;5.578;2023-10-31T11:21:56;7.57;;;2.83;;
23720;SDS011;42950;52.134;5.578;2023-10-31T11:24:25;8.60;;;3.25;;
23720;SDS011;42950;52.134;5.578;2023-10-31T11:26:53;11.40;;;4.05;;
23720;SDS011;42950;52.134;5.578;2023-10-31T11:29:23;8.10;;;4.30;;
23720;SDS011;42950;52.134;5.578;2023-10-31T11:31:48;13.57;;;4.40;;
23720;SDS011;42950;52.134;5.578;2023-10-31T11:34:17;9.63;;;4.20;;
23720;SDS011;42950;52.134;5.578;2023-10-31T11:36:45;9.75;;;4.57;;
23720;SDS011;42950;52.134;5.578;2023-10-31T11:39:15;7.55;;;3.55;;
23720;SDS011;42950;52.134;5.578;2023-10-31T11:41:48;12.00;;;3.45;;
23720;SDS011;42950;52.134;5.578;2023-10-31T11:44:15;10.55;;;3.35;;
23720;SDS011;42950;52.134;5.578;2023-10-31T11:46:41;6.10;;;3.00;;
23720;SDS011;42950;52.134;5.578;2023-10-31T11:49:07;9.00;;;3.30;;
23720;SDS011;42950;52.134;5.578;2023-10-31T11:51:33;7.32;;;3.53;;
23720;SDS011;42950;52.134;5.578;2023-10-31T11:54:02;7.72;;;3.17;;
23720;SDS011;42950;52.134;5.578;2023-10-31T11:56:28;7.78;;;3.35;;
23720;SDS011;42950;52.134;5.578;2023-10-31T11:59:03;7.47;;;3.40;;
23720;SDS011;42950;52.134;5.578;2023-10-31T12:01:31;6.18;;;3.60;;
23720;SDS011;42950;52.134;5.578;2023-10-31T12:03:57;6.25;;;3.53;;
23720;SDS011;42950;52.134;5.578;2023-10-31T12:06:23;7.32;;;4.13;;
23720;SDS011;42950;52.134;5.578;2023-10-31T12:08:50;6.47;;;4.20;;
23720;SDS011;42950;52.134;5.578;2023-10-31T12:11:17;11.10;;;4.45;;
23720;SDS011;42950;52.134;5.578;2023-10-31T12:13:57;7.50;;;4.38;;
23720;SDS011;42950;52.134;5.578;2023-10-31T12:16:32;11.38;;;7.00;;
23720;SDS011;42950;52.134;5.578;2023-10-31T12:18:59;11.20;;;7.60;;
23720;SDS011;42950;52.134;5.578;2023-10-31T12:24:15;8.77;;;7.55;;
23720;SDS011;42950;52.134;5.578;2023-10-31T12:26:42;13.05;;;8.95;;
23720;SDS011;42950;52.134;5.578;2023-10-31T12:29:16;15.10;;;9.25;;
23720;SDS011;42950;52.134;5.578;2023-10-31T12:31:43;16.58;;;10.73;;
23720;SDS011;42950;52.134;5.578;2023-10-31T12:34:23;15.05;;;11.23;;
23720;SDS011;42950;52.134;5.578;2023-10-31T12:36:50;20.58;;;14.60;;
23720;SDS011;42950;52.134;5.578;2023-10-31T12:39:18;19.10;;;14.43;;
23720;SDS011;42950;52.134;5.578;2023-10-31T12:41:47;24.45;;;16.50;;
23720;SDS011;42950;52.134;5.578;2023-10-31T12:44:15;28.23;;;16.15;;
23720;SDS011;42950;52.134;5.578;2023-10-31T12:46:47;24.85;;;17.63;;
23720;SDS011;42950;52.134;5.578;2023-10-31T12:49:19;23.23;;;17.00;;
23720;SDS011;42950;52.134;5.578;2023-10-31T12:51:55;22.75;;;18.10;;
23720;SDS011;42950;52.134;5.578;2023-10-31T12:54:29;25.85;;;18.40;;
23720;SDS011;42950;52.134;5.578;2023-10-31T12:56:59;25.45;;;18.17;;
23720;SDS011;42950;52.134;5.578;2023-10-31T12:59:26;28.13;;;19.38;;
23720;SDS011;42950;52.134;5.578;2023-10-31T13:01:52;28.02;;;19.75;;
23720;SDS011;42950;52.134;5.578;2023-10-31T13:04:27;27.20;;;18.00;;
23720;SDS011;42950;52.134;5.578;2023-10-31T13:06:57;27.25;;;18.00;;
23720;SDS011;42950;52.134;5.578;2023-10-31T13:09:37;28.23;;;18.33;;
23720;SDS011;42950;52.134;5.578;2023-10-31T13:12:04;26.08;;;17.70;;
23720;SDS011;42950;52.134;5.578;2023-10-31T13:14:32;25.58;;;16.48;;
23720;SDS011;42950;52.134;5.578;2023-10-31T13:16:58;30.08;;;16.83;;
23720;SDS011;42950;52.134;5.578;2023-10-31T13:19:24;29.58;;;17.65;;
23720;SDS011;42950;52.134;5.578;2023-10-31T13:21:50;23.58;;;15.20;;
23720;SDS011;42950;52.134;5.578;2023-10-31T13:24:16;25.08;;;16.30;;
23720;SDS011;42950;52.134;5.578;2023-10-31T13:26:42;29.67;;;16.20;;
23720;SDS011;42950;52.134;5.578;2023-10-31T13:29:10;26.08;;;15.45;;
23720;SDS011;42950;52.134;5.578;2023-10-31T13:31:36;28.55;;;16.50;;
23720;SDS011;42950;52.134;5.578;2023-10-31T13:34:03;29.08;;;16.75;;
23720;SDS011;42950;52.134;5.578;2023-10-31T13:36:29;30.08;;;16.70;;
23720;SDS011;42950;52.134;5.578;2023-10-31T13:38:55;29.75;;;17.27;;
23720;SDS011;42950;52.134;5.578;2023-10-31T13:41:20;24.00;;;16.15;;
23720;SDS011;42950;52.134;5.578;2023-10-31T13:43:46;27.75;;;16.50;;
23720;SDS011;42950;52.134;5.578;2023-10-31T13:46:13;25.95;;;16.13;;
23720;SDS011;42950;52.134;5.578;2023-10-31T13:48:39;26.75;;;16.90;;
23720;SDS011;42950;52.134;5.578;2023-10-31T13:51:05;23.80;;;16.02;;
23720;SDS011;42950;52.134;5.578;2023-10-31T13:53:30;25.20;;;16.13;;
23720;SDS011;42950;52.134;5.578;2023-10-31T13:55:56;23.42;;;16.48;;
23720;SDS011;42950;52.134;5.578;2023-10-31T13:58:22;24.77;;;16.08;;
23720;SDS011;42950;52.134;5.578;2023-10-31T14:00:47;24.92;;;16.98;;
23720;SDS011;42950;52.134;5.578;2023-10-31T14:03:14;22.50;;;15.52;;
23720;SDS011;42950;52.134;5.578;2023-10-31T14:05:40;19.35;;;15.45;;
23720;SDS011;42950;52.134;5.578;2023-10-31T14:08:07;19.80;;;15.13;;
23720;SDS011;42950;52.134;5.578;2023-10-31T14:10:33;20.90;;;15.40;;
23720;SDS011;42950;52.134;5.578;2023-10-31T14:12:58;21.00;;;15.98;;
23720;SDS011;42950;52.134;5.578;2023-10-31T14:15:25;19.92;;;15.30;;
23720;SDS011;42950;52.134;5.578;2023-10-31T14:17:51;22.67;;;16.80;;
23720;SDS011;42950;52.134;5.578;2023-10-31T14:20:17;23.42;;;17.08;;
23720;SDS011;42950;52.134;5.578;2023-10-31T14:22:49;21.38;;;16.17;;
23720;SDS011;42950;52.134;5.578;2023-10-31T14:25:17;21.75;;;16.67;;
23720;SDS011;42950;52.134;5.578;2023-10-31T14:27:43;18.95;;;15.30;;
23720;SDS011;42950;52.134;5.578;2023-10-31T14:30:11;24.05;;;17.40;;
23720;SDS011;42950;52.134;5.578;2023-10-31T14:32:38;27.65;;;18.02;;
23720;SDS011;42950;52.134;5.578;2023-10-31T14:35:04;20.73;;;17.45;;
23720;SDS011;42950;52.134;5.578;2023-10-31T14:37:30;23.25;;;18.42;;
23720;SDS011;42950;52.134;5.578;2023-10-31T14:39:56;23.02;;;18.50;;
23720;SDS011;42950;52.134;5.578;2023-10-31T14:42:21;24.80;;;18.20;;
23720;SDS011;42950;52.134;5.578;2023-10-31T14:44:48;24.85;;;19.25;;